Time;durP1;ratioP1;P1;durP2;ratioP2;P2;SDS_P1;SDS_P2;PMS_P1;PMS_P2;Temp;Humidity;BMP_temperature;BMP_pressure;BME280_temperature;BME280_humidity;BME280_pressure;Samples;Min_cycle;Max_cycle;Signal;HPM_P1;HPM_P2
2021/09/22 00:01:51;;;;;;;7.97;6.10;;;;;;;;;;5011599;28;20443;-79
2021/09/22 00:04:20;;;;;;;6.47;5.07;;;;;;;;;;5011907;28;20439;-80
2021/09/22 00:06:47;;;;;;;8.10;5.53;;;;;;;;;;5011572;28;20478;-80
2021/09/22 00:09:14;;;;;;;8.23;5.90;;;;;;;;;;5013709;28;20971;-77
2021/09/22 00:11:41;;;;;;;6.20;5.50;;;;;;;;;;5013758;28;20434;-77
2021/09/22 00:14:08;;;;;;;6.50;5.80;;;;;;;;;;5013772;28;20451;-81
2021/09/22 00:16:36;;;;;;;6.93;5.60;;;;;;;;;;5009537;28;20922;-78
2021/09/22 00:19:03;;;;;;;6.87;6.17;;;;;;;;;;5008504;28;20427;-79
2021/09/22 00:21:31;;;;;;;7.70;5.70;;;;;;;;;;5050483;28;20449;-83
2021/09/22 00:23:59;;;;;;;5.50;5.00;;;;;;;;;;5050669;28;20444;-78
2021/09/22 00:26:26;;;;;;;7.30;5.77;;;;;;;;;;5050800;28;20437;-83
2021/09/22 00:28:53;;;;;;;6.60;5.90;;;;;;;;;;5049744;28;20433;-77
2021/09/22 00:31:20;;;;;;;7.03;5.63;;;;;;;;;;5033344;28;20445;-80
2021/09/22 00:33:47;;;;;;;6.90;5.90;;;;;;;;;;5032742;28;20464;-79
2021/09/22 00:36:14;;;;;;;6.20;5.37;;;;;;;;;;5033270;28;20435;-80
2021/09/22 00:38:43;;;;;;;7.43;5.73;;;;;;;;;;5042564;28;20926;-78
2021/09/22 00:41:10;;;;;;;6.40;5.53;;;;;;;;;;5047154;28;20457;-78
2021/09/22 00:43:37;;;;;;;8.03;6.10;;;;;;;;;;5050263;28;20441;-80
2021/09/22 00:46:05;;;;;;;9.53;6.77;;;;;;;;;;5050666;28;20448;-76
2021/09/22 00:48:33;;;;;;;8.10;7.10;;;;;;;;;;5050800;28;20485;-78
2021/09/22 00:51:00;;;;;;;7.60;6.30;;;;;;;;;;5029402;28;20520;-82
2021/09/22 00:53:27;;;;;;;7.50;6.37;;;;;;;;;;5052533;28;20448;-78
2021/09/22 00:55:56;;;;;;;9.13;6.80;;;;;;;;;;5052858;28;20456;-76
2021/09/22 00:58:23;;;;;;;8.07;7.27;;;;;;;;;;5035388;28;20491;-78
2021/09/22 01:00:50;;;;;;;8.23;6.57;;;;;;;;;;5048383;28;20807;-76
2021/09/22 01:03:17;;;;;;;6.00;5.40;;;;;;;;;;5020921;28;20783;-76
2021/09/22 01:05:45;;;;;;;8.20;6.53;;;;;;;;;;5028791;28;20437;-78
2021/09/22 01:08:16;;;;;;;8.83;7.17;;;;;;;;;;5047896;28;20477;-76
2021/09/22 01:10:43;;;;;;;7.00;6.30;;;;;;;;;;5049042;28;20974;-81
2021/09/22 01:13:11;;;;;;;7.50;6.50;;;;;;;;;;5041042;28;20646;-79
2021/09/22 01:15:42;;;;;;;8.80;6.90;;;;;;;;;;5032749;28;20444;-79
2021/09/22 01:18:12;;;;;;;8.67;6.67;;;;;;;;;;5028953;28;20879;-78
2021/09/22 01:20:41;;;;;;;7.10;6.40;;;;;;;;;;5025896;28;21048;-76
2021/09/22 01:23:09;;;;;;;6.73;6.00;;;;;;;;;;5044988;28;20536;-81
2021/09/22 01:25:37;;;;;;;8.53;6.07;;;;;;;;;;5047047;28;20426;-80
2021/09/22 01:28:05;;;;;;;7.93;6.80;;;;;;;;;;5049699;28;20488;-78
2021/09/22 01:30:32;;;;;;;14.53;6.47;;;;;;;;;;5050036;28;20483;-78
2021/09/22 01:33:01;;;;;;;7.67;6.33;;;;;;;;;;5050468;28;20437;-80
2021/09/22 01:35:33;;;;;;;9.27;6.77;;;;;;;;;;5050314;28;20465;-79
2021/09/22 01:38:00;;;;;;;8.00;6.10;;;;;;;;;;5052562;28;20448;-80
2021/09/22 01:40:29;;;;;;;8.40;7.03;;;;;;;;;;5052449;28;20465;-80
2021/09/22 01:42:56;;;;;;;6.87;6.03;;;;;;;;;;5052616;28;20452;-80
2021/09/22 01:45:23;;;;;;;8.00;6.60;;;;;;;;;;5048931;28;20805;-79
2021/09/22 01:47:50;;;;;;;6.43;5.80;;;;;;;;;;5052869;28;20484;-77
2021/09/22 01:50:18;;;;;;;9.20;7.23;;;;;;;;;;5053431;28;20475;-83
2021/09/22 01:52:49;;;;;;;8.10;6.40;;;;;;;;;;5053710;28;20456;-80
2021/09/22 01:55:16;;;;;;;9.83;7.40;;;;;;;;;;5053927;28;20437;-77
2021/09/22 01:57:45;;;;;;;6.70;5.70;;;;;;;;;;5054391;28;20483;-79
2021/09/22 02:00:12;;;;;;;6.83;6.13;;;;;;;;;;5056511;28;20523;-78
2021/09/22 02:02:39;;;;;;;13.70;6.80;;;;;;;;;;5056860;28;20445;-81
2021/09/22 02:05:07;;;;;;;7.40;6.17;;;;;;;;;;5057079;28;20437;-76
2021/09/22 02:07:34;;;;;;;6.40;5.70;;;;;;;;;;5049835;28;20825;-80
2021/09/22 02:10:02;;;;;;;8.33;6.90;;;;;;;;;;5049715;28;20460;-78
2021/09/22 02:12:29;;;;;;;6.83;5.53;;;;;;;;;;5056887;28;20447;-80
2021/09/22 02:14:58;;;;;;;7.27;6.20;;;;;;;;;;5053194;28;20447;-77
2021/09/22 02:17:25;;;;;;;7.80;7.00;;;;;;;;;;5053380;28;20475;-82
2021/09/22 02:19:52;;;;;;;8.23;7.43;;;;;;;;;;5053530;28;20550;-78
2021/09/22 02:22:19;;;;;;;9.00;7.20;;;;;;;;;;5055439;28;20433;-78
2021/09/22 02:24:47;;;;;;;7.13;6.40;;;;;;;;;;5055388;28;20452;-79
2021/09/22 02:27:18;;;;;;;8.00;7.20;;;;;;;;;;5055243;28;20445;-80
2021/09/22 02:29:45;;;;;;;8.40;7.20;;;;;;;;;;5049048;28;20453;-77
2021/09/22 02:32:13;;;;;;;7.23;6.53;;;;;;;;;;5020860;28;20431;-80
2021/09/22 02:34:41;;;;;;;7.23;6.20;;;;;;;;;;5053014;28;20463;-80
2021/09/22 02:37:08;;;;;;;7.67;6.37;;;;;;;;;;5052928;28;20441;-83
2021/09/22 02:39:35;;;;;;;7.93;6.03;;;;;;;;;;5052864;28;20461;-79
2021/09/22 02:42:02;;;;;;;7.00;6.30;;;;;;;;;;5045612;28;20449;-81
2021/09/22 02:44:29;;;;;;;8.20;6.80;;;;;;;;;;5037311;28;20800;-79
2021/09/22 02:46:57;;;;;;;8.50;6.77;;;;;;;;;;5040261;28;20478;-76
2021/09/22 02:49:25;;;;;;;7.20;6.40;;;;;;;;;;5036158;28;20497;-77
2021/09/22 02:51:52;;;;;;;8.00;7.10;;;;;;;;;;5048755;28;20434;-79
2021/09/22 02:54:19;;;;;;;7.27;6.50;;;;;;;;;;5050628;28;20426;-75
2021/09/22 02:56:46;;;;;;;7.73;6.93;;;;;;;;;;5052459;28;20452;-79
2021/09/22 02:59:14;;;;;;;7.70;6.90;;;;;;;;;;5052533;28;20471;-79
2021/09/22 03:01:41;;;;;;;9.47;6.87;;;;;;;;;;5031582;28;20453;-80
2021/09/22 03:04:08;;;;;;;8.00;7.20;;;;;;;;;;5050293;28;20453;-80
2021/09/22 03:06:37;;;;;;;7.80;7.00;;;;;;;;;;5054556;28;20442;-79
2021/09/22 03:09:04;;;;;;;7.27;6.57;;;;;;;;;;5054216;28;20495;-81
2021/09/22 03:11:31;;;;;;;7.37;6.40;;;;;;;;;;5054044;28;20467;-80
2021/09/22 03:13:58;;;;;;;9.63;6.90;;;;;;;;;;5047994;28;20455;-80
2021/09/22 03:16:26;;;;;;;7.00;6.23;;;;;;;;;;5049125;28;20502;-80
2021/09/22 03:18:53;;;;;;;6.73;6.07;;;;;;;;;;5051991;28;20445;-77
2021/09/22 03:21:20;;;;;;;8.10;7.30;;;;;;;;;;5051933;28;20452;-77
2021/09/22 03:23:48;;;;;;;7.40;6.30;;;;;;;;;;5051807;28;20437;-78
2021/09/22 03:26:15;;;;;;;7.67;6.53;;;;;;;;;;5043855;28;20450;-78
2021/09/22 03:28:43;;;;;;;6.57;5.87;;;;;;;;;;5034265;28;20493;-80
2021/09/22 03:31:10;;;;;;;7.67;6.50;;;;;;;;;;5030445;28;20983;-75
2021/09/22 03:33:37;;;;;;;7.30;6.13;;;;;;;;;;5034954;28;20449;-78
2021/09/22 03:36:05;;;;;;;8.83;7.17;;;;;;;;;;5046796;28;20544;-79
2021/09/22 03:38:32;;;;;;;7.33;6.10;;;;;;;;;;5049191;28;20430;-76
2021/09/22 03:41:01;;;;;;;7.20;6.00;;;;;;;;;;5051674;28;20462;-79
2021/09/22 03:43:28;;;;;;;7.87;7.07;;;;;;;;;;5051568;28;20798;-78
2021/09/22 03:45:55;;;;;;;8.00;6.90;;;;;;;;;;5030612;28;20769;-76
2021/09/22 03:48:22;;;;;;;9.93;7.17;;;;;;;;;;5051683;28;20496;-79
2021/09/22 03:50:50;;;;;;;8.83;7.93;;;;;;;;;;5053388;28;20821;-78
2021/09/22 03:53:17;;;;;;;8.90;7.80;;;;;;;;;;5053739;28;20472;-78
2021/09/22 03:55:44;;;;;;;9.13;7.10;;;;;;;;;;5052944;28;20791;-79
2021/09/22 03:58:13;;;;;;;9.27;8.00;;;;;;;;;;5019436;28;20430;-76
2021/09/22 04:00:41;;;;;;;12.00;7.43;;;;;;;;;;5048193;28;20453;-80
2021/09/22 04:03:08;;;;;;;9.07;7.73;;;;;;;;;;5051108;28;20453;-84
2021/09/22 04:05:36;;;;;;;6.80;6.10;;;;;;;;;;5051239;28;20448;-79
2021/09/22 04:08:03;;;;;;;10.87;7.17;;;;;;;;;;5050599;28;20476;-77
2021/09/22 04:10:30;;;;;;;7.93;6.20;;;;;;;;;;5018258;28;20481;-76
2021/09/22 04:12:58;;;;;;;8.13;6.77;;;;;;;;;;5033685;28;20997;-79
2021/09/22 04:15:26;;;;;;;8.10;6.97;;;;;;;;;;5033388;28;20452;-77
2021/09/22 04:17:53;;;;;;;10.73;7.30;;;;;;;;;;5035390;28;20439;-79
2021/09/22 04:20:20;;;;;;;8.83;7.93;;;;;;;;;;5046308;28;20463;-79
2021/09/22 04:22:48;;;;;;;8.70;7.70;;;;;;;;;;5048406;28;20774;-77
2021/09/22 04:25:15;;;;;;;7.10;6.37;;;;;;;;;;5051035;28;20444;-80
2021/09/22 04:27:42;;;;;;;9.20;7.03;;;;;;;;;;5050767;28;20879;-77
2021/09/22 04:30:10;;;;;;;7.60;6.10;;;;;;;;;;5050822;28;20814;-82
2021/09/22 04:32:39;;;;;;;7.63;6.90;;;;;;;;;;5051921;28;20461;-78
2021/09/22 04:35:06;;;;;;;7.10;6.40;;;;;;;;;;5053170;28;20437;-80
2021/09/22 04:37:36;;;;;;;8.80;7.30;;;;;;;;;;5052907;28;20911;-79
2021/09/22 04:40:04;;;;;;;8.50;7.60;;;;;;;;;;5051800;28;20467;-82
2021/09/22 04:42:31;;;;;;;8.10;7.13;;;;;;;;;;5046316;28;20422;-77
2021/09/22 04:44:58;;;;;;;7.10;6.30;;;;;;;;;;5048222;28;20446;-79
2021/09/22 04:47:27;;;;;;;9.23;7.37;;;;;;;;;;5050930;28;20447;-79
2021/09/22 04:49:55;;;;;;;9.10;7.50;;;;;;;;;;5050874;28;20516;-83
2021/09/22 04:52:22;;;;;;;9.13;7.10;;;;;;;;;;5050701;28;20456;-78
2021/09/22 04:54:50;;;;;;;11.27;6.60;;;;;;;;;;5039879;28;20460;-78
2021/09/22 04:57:17;;;;;;;8.90;8.00;;;;;;;;;;5032959;28;20446;-78
2021/09/22 04:59:44;;;;;;;7.90;6.67;;;;;;;;;;5032892;28;20460;-76
2021/09/22 05:02:11;;;;;;;10.33;6.23;;;;;;;;;;5036211;28;20436;-79
2021/09/22 05:04:38;;;;;;;8.80;7.87;;;;;;;;;;5046521;28;20444;-79
2021/09/22 05:07:07;;;;;;;9.00;7.60;;;;;;;;;;5048351;28;20477;-77
2021/09/22 05:09:35;;;;;;;9.53;7.63;;;;;;;;;;5050242;28;20491;-77
2021/09/22 05:12:02;;;;;;;8.70;6.53;;;;;;;;;;5050471;28;20441;-77
2021/09/22 05:14:29;;;;;;;8.53;7.23;;;;;;;;;;5050522;28;20907;-81
2021/09/22 05:16:56;;;;;;;7.67;6.47;;;;;;;;;;5051558;28;20464;-78
2021/09/22 05:19:24;;;;;;;9.60;6.77;;;;;;;;;;5054548;28;20484;-77
2021/09/22 05:21:51;;;;;;;9.03;6.80;;;;;;;;;;5056976;28;20451;-77
2021/09/22 05:24:20;;;;;;;8.90;7.37;;;;;;;;;;5049591;28;20449;-78
2021/09/22 05:26:47;;;;;;;8.53;7.73;;;;;;;;;;5030683;28;20438;-78
2021/09/22 05:29:14;;;;;;;8.70;7.67;;;;;;;;;;5032275;28;20478;-78
2021/09/22 05:31:41;;;;;;;9.53;7.53;;;;;;;;;;5034243;28;20441;-80
2021/09/22 05:34:09;;;;;;;8.80;6.90;;;;;;;;;;5032465;28;20470;-78
2021/09/22 05:36:36;;;;;;;7.70;6.90;;;;;;;;;;5016673;28;20446;-80
2021/09/22 05:39:04;;;;;;;9.57;6.60;;;;;;;;;;5032048;28;20454;-79
2021/09/22 05:41:32;;;;;;;8.70;7.20;;;;;;;;;;5029560;28;20815;-78
2021/09/22 05:43:59;;;;;;;8.03;7.23;;;;;;;;;;5029541;28;20449;-77
2021/09/22 05:46:26;;;;;;;9.13;7.10;;;;;;;;;;4999084;28;20702;-75
2021/09/22 05:48:54;;;;;;;7.73;6.90;;;;;;;;;;5033621;28;20480;-80
2021/09/22 05:51:21;;;;;;;10.90;8.20;;;;;;;;;;5033702;28;20446;-81
2021/09/22 05:53:48;;;;;;;8.40;7.50;;;;;;;;;;5034980;28;20473;-75
2021/09/22 05:56:15;;;;;;;7.97;7.13;;;;;;;;;;5032876;28;20525;-81
2021/09/22 05:58:44;;;;;;;8.40;6.90;;;;;;;;;;5035751;28;20442;-78
2021/09/22 06:01:11;;;;;;;9.10;6.13;;;;;;;;;;5033510;28;20504;-78
2021/09/22 06:03:38;;;;;;;7.13;6.40;;;;;;;;;;5028139;28;20799;-77
2021/09/22 06:06:06;;;;;;;7.17;5.90;;;;;;;;;;5030961;28;20446;-77
2021/09/22 06:08:33;;;;;;;7.03;6.33;;;;;;;;;;5016563;28;20481;-75
2021/09/22 06:11:01;;;;;;;9.90;7.27;;;;;;;;;;5012725;28;20884;-75
2021/09/22 06:13:29;;;;;;;10.63;7.57;;;;;;;;;;5030948;28;21056;-79
2021/09/22 06:15:57;;;;;;;9.57;7.60;;;;;;;;;;5016034;28;20466;-76
2021/09/22 06:18:24;;;;;;;7.73;6.93;;;;;;;;;;5034710;28;20448;-76
2021/09/22 06:20:51;;;;;;;7.63;6.40;;;;;;;;;;5032742;28;20496;-80
2021/09/22 06:23:19;;;;;;;7.77;6.23;;;;;;;;;;5035036;28;20442;-79
2021/09/22 06:25:46;;;;;;;8.47;6.70;;;;;;;;;;5028840;28;20454;-80
2021/09/22 06:28:13;;;;;;;7.90;6.83;;;;;;;;;;5028110;28;20443;-82
2021/09/22 06:30:42;;;;;;;8.70;6.90;;;;;;;;;;5031674;28;20460;-78
2021/09/22 06:33:11;;;;;;;11.83;7.07;;;;;;;;;;5031702;28;20524;-79
2021/09/22 06:35:38;;;;;;;9.03;7.40;;;;;;;;;;5032409;28;20443;-80
2021/09/22 06:38:05;;;;;;;8.20;7.10;;;;;;;;;;5028585;28;20461;-79
2021/09/22 06:40:32;;;;;;;8.00;7.20;;;;;;;;;;5034791;28;20466;-78
2021/09/22 06:42:59;;;;;;;8.33;6.80;;;;;;;;;;5032574;28;20454;-75
2021/09/22 06:45:27;;;;;;;9.27;6.90;;;;;;;;;;5038760;28;20466;-79
2021/09/22 06:47:54;;;;;;;9.80;8.10;;;;;;;;;;5028820;28;20458;-77
2021/09/22 06:50:22;;;;;;;7.20;5.90;;;;;;;;;;5029400;28;20470;-79
2021/09/22 06:52:49;;;;;;;8.60;7.10;;;;;;;;;;5031923;28;20446;-74
2021/09/22 06:55:17;;;;;;;8.20;7.03;;;;;;;;;;5032437;28;20446;-77
2021/09/22 06:57:44;;;;;;;9.40;7.10;;;;;;;;;;5032448;28;21052;-76
2021/09/22 07:00:13;;;;;;;12.13;7.73;;;;;;;;;;5032602;28;20844;-77
2021/09/22 07:02:40;;;;;;;10.20;7.20;;;;;;;;;;5034592;28;20853;-80
2021/09/22 07:05:08;;;;;;;7.30;6.60;;;;;;;;;;5014211;28;20447;-80
2021/09/22 07:07:37;;;;;;;7.83;6.40;;;;;;;;;;5013225;28;20443;-76
2021/09/22 07:10:04;;;;;;;9.13;7.33;;;;;;;;;;5026395;28;20851;-81
2021/09/22 07:12:31;;;;;;;8.47;7.03;;;;;;;;;;5028696;28;20439;-82
2021/09/22 07:14:59;;;;;;;7.97;6.27;;;;;;;;;;5031290;28;20448;-75
2021/09/22 07:17:26;;;;;;;7.73;6.13;;;;;;;;;;5031932;28;20805;-77
2021/09/22 07:19:53;;;;;;;7.60;6.90;;;;;;;;;;5031727;28;20484;-75
2021/09/22 07:22:20;;;;;;;10.13;7.40;;;;;;;;;;5029287;28;20454;-75
2021/09/22 07:24:49;;;;;;;9.47;7.00;;;;;;;;;;5026684;28;20466;-76
2021/09/22 07:27:16;;;;;;;8.40;7.37;;;;;;;;;;5028899;28;20442;-79
2021/09/22 07:29:43;;;;;;;7.73;6.90;;;;;;;;;;5031211;28;20501;-79
2021/09/22 07:32:11;;;;;;;8.37;7.43;;;;;;;;;;5042512;28;20468;-78
2021/09/22 07:34:39;;;;;;;6.93;6.23;;;;;;;;;;5051952;28;20444;-76
2021/09/22 07:37:09;;;;;;;9.20;7.60;;;;;;;;;;5038761;28;20469;-82
2021/09/22 07:39:37;;;;;;;10.40;8.00;;;;;;;;;;5032560;28;20517;-85
2021/09/22 07:42:05;;;;;;;9.00;6.33;;;;;;;;;;5031592;28;20458;-76
2021/09/22 07:44:33;;;;;;;8.87;7.00;;;;;;;;;;5032983;28;20453;-75
2021/09/22 07:47:00;;;;;;;9.20;6.20;;;;;;;;;;5026703;28;20958;-78
2021/09/22 07:49:27;;;;;;;10.10;7.03;;;;;;;;;;5025895;28;21027;-77
2021/09/22 07:51:55;;;;;;;7.63;6.43;;;;;;;;;;5029236;28;20462;-78
2021/09/22 07:54:22;;;;;;;8.93;7.10;;;;;;;;;;5029837;28;20458;-75
2021/09/22 07:56:49;;;;;;;10.83;7.80;;;;;;;;;;5031160;28;20446;-75
2021/09/22 07:59:17;;;;;;;8.60;6.67;;;;;;;;;;5031174;28;20490;-77
2021/09/22 08:01:45;;;;;;;8.63;7.73;;;;;;;;;;5027688;28;20429;-79
2021/09/22 08:04:12;;;;;;;9.17;7.23;;;;;;;;;;5026555;28;20790;-73
2021/09/22 08:06:39;;;;;;;8.90;7.30;;;;;;;;;;5030432;28;20454;-76
2021/09/22 08:09:06;;;;;;;8.40;7.50;;;;;;;;;;5022131;28;20499;-75
2021/09/22 08:11:34;;;;;;;13.70;8.03;;;;;;;;;;5011752;28;20805;-78
2021/09/22 08:14:02;;;;;;;11.90;8.77;;;;;;;;;;5011942;28;20468;-78
2021/09/22 08:16:31;;;;;;;7.63;6.83;;;;;;;;;;5013423;28;20449;-79
2021/09/22 08:18:58;;;;;;;7.50;6.70;;;;;;;;;;5013057;28;20438;-78
2021/09/22 08:21:26;;;;;;;10.80;8.13;;;;;;;;;;5033560;28;20483;-80
2021/09/22 08:23:53;;;;;;;11.47;7.67;;;;;;;;;;5038283;28;20468;-73
2021/09/22 08:26:20;;;;;;;9.70;7.90;;;;;;;;;;5037017;28;20430;-78
2021/09/22 08:28:47;;;;;;;10.00;7.67;;;;;;;;;;5043906;28;21034;-79
2021/09/22 08:31:14;;;;;;;11.03;7.97;;;;;;;;;;5050660;28;20489;-76
2021/09/22 08:33:43;;;;;;;9.27;8.10;;;;;;;;;;5049557;28;20930;-76
2021/09/22 08:36:10;;;;;;;11.17;8.97;;;;;;;;;;5046800;28;20458;-80
2021/09/22 08:38:37;;;;;;;8.27;7.47;;;;;;;;;;5047919;28;20445;-79
2021/09/22 08:41:05;;;;;;;12.33;9.13;;;;;;;;;;5045825;28;20815;-81
2021/09/22 08:43:32;;;;;;;10.20;8.27;;;;;;;;;;5041397;28;20970;-80
2021/09/22 08:46:00;;;;;;;10.40;8.90;;;;;;;;;;5045873;28;20465;-75
2021/09/22 08:48:27;;;;;;;12.07;8.47;;;;;;;;;;5038207;28;20469;-77
2021/09/22 08:50:56;;;;;;;8.70;7.90;;;;;;;;;;5044260;28;20584;-80
2021/09/22 08:53:24;;;;;;;14.20;7.80;;;;;;;;;;5060984;28;20464;-80
2021/09/22 08:55:51;;;;;;;9.50;8.50;;;;;;;;;;5036072;28;20441;-78
2021/09/22 08:58:18;;;;;;;13.90;10.10;;;;;;;;;;5050105;28;20420;-77
2021/09/22 09:00:47;;;;;;;10.00;8.50;;;;;;;;;;5034796;28;20481;-75
2021/09/22 09:03:29;;;;;;;11.90;9.00;;;;;;;;;;5042994;28;20435;-78
2021/09/22 09:06:11;;;;;;;10.17;7.80;;;;;;;;;;5036889;28;20458;-76
2021/09/22 09:08:41;;;;;;;10.73;8.70;;;;;;;;;;5020187;28;20446;-76
2021/09/22 09:11:09;;;;;;;10.53;9.43;;;;;;;;;;5020482;28;20478;-75
2021/09/22 09:13:45;;;;;;;10.07;9.00;;;;;;;;;;5041237;28;20931;-79
2021/09/22 09:16:16;;;;;;;13.90;9.57;;;;;;;;;;5054004;28;20422;-76
2021/09/22 09:18:45;;;;;;;11.63;8.97;;;;;;;;;;5054196;28;20448;-76
2021/09/22 09:21:12;;;;;;;10.37;9.23;;;;;;;;;;5051838;28;20575;-78
2021/09/22 09:23:48;;;;;;;10.07;9.00;;;;;;;;;;5047925;28;20465;-74
2021/09/22 09:26:20;;;;;;;16.73;9.80;;;;;;;;;;5053266;28;20459;-78
2021/09/22 09:28:50;;;;;;;10.53;8.60;;;;;;;;;;5036740;28;20459;-75
2021/09/22 09:31:18;;;;;;;12.07;9.03;;;;;;;;;;5017703;28;20490;-75
2021/09/22 09:33:46;;;;;;;11.23;8.73;;;;;;;;;;5040270;28;20448;-74
2021/09/22 09:36:23;;;;;;;11.93;9.27;;;;;;;;;;5033884;28;20449;-74
2021/09/22 09:38:52;;;;;;;12.53;9.60;;;;;;;;;;5046109;28;20427;-76
2021/09/22 09:41:25;;;;;;;11.93;9.13;;;;;;;;;;5065861;28;20576;-73
2021/09/22 09:43:52;;;;;;;11.60;8.90;;;;;;;;;;5045281;28;20458;-75
2021/09/22 09:46:20;;;;;;;11.57;8.47;;;;;;;;;;5052859;28;20434;-80
2021/09/22 09:48:54;;;;;;;11.73;8.50;;;;;;;;;;5041653;28;21068;-77
2021/09/22 09:51:21;;;;;;;10.53;8.90;;;;;;;;;;5052607;28;21033;-78
2021/09/22 09:53:49;;;;;;;8.60;7.40;;;;;;;;;;5038883;28;20411;-78
2021/09/22 09:56:19;;;;;;;10.30;8.90;;;;;;;;;;5037971;28;20517;-74
2021/09/22 09:58:48;;;;;;;10.70;9.07;;;;;;;;;;5027206;28;20427;-74
2021/09/22 10:01:17;;;;;;;15.10;10.00;;;;;;;;;;5051495;28;20440;-76
2021/09/22 10:03:46;;;;;;;11.40;8.13;;;;;;;;;;5050292;28;20423;-78
2021/09/22 10:06:13;;;;;;;11.07;8.67;;;;;;;;;;5050364;28;20433;-77
2021/09/22 10:08:41;;;;;;;8.13;7.33;;;;;;;;;;5044677;28;20466;-76
2021/09/22 10:11:08;;;;;;;9.80;8.80;;;;;;;;;;5049785;28;20972;-74
2021/09/22 10:13:35;;;;;;;11.10;9.70;;;;;;;;;;5052481;28;20442;-76
2021/09/22 10:16:05;;;;;;;12.67;9.83;;;;;;;;;;5045867;28;20419;-75
2021/09/22 10:18:32;;;;;;;11.87;10.30;;;;;;;;;;5040701;28;21401;-74
2021/09/22 10:21:00;;;;;;;9.87;8.43;;;;;;;;;;5046461;28;20801;-78
2021/09/22 10:23:27;;;;;;;9.73;8.40;;;;;;;;;;5051866;28;20426;-75
2021/09/22 10:25:55;;;;;;;12.20;7.87;;;;;;;;;;5053429;28;20445;-75
2021/09/22 10:28:34;;;;;;;11.13;7.73;;;;;;;;;;5045110;28;20530;-82
2021/09/22 10:31:01;;;;;;;11.93;8.63;;;;;;;;;;5048919;28;20519;-82
2021/09/22 10:33:31;;;;;;;9.83;8.00;;;;;;;;;;5039695;28;20428;-83
2021/09/22 10:35:58;;;;;;;10.40;8.17;;;;;;;;;;5045454;28;20440;-81
2021/09/22 10:38:41;;;;;;;8.73;7.00;;;;;;;;;;5025853;28;20429;-80
2021/09/22 10:41:09;;;;;;;10.87;6.40;;;;;;;;;;5046818;28;21232;-83
2021/09/22 10:43:38;;;;;;;10.00;7.80;;;;;;;;;;5034710;28;20498;-83
2021/09/22 10:46:15;;;;;;;9.53;7.63;;;;;;;;;;5053750;28;20858;-78
2021/09/22 10:48:58;;;;;;;8.57;6.80;;;;;;;;;;5043592;28;20421;-78
2021/09/22 10:51:28;;;;;;;9.47;7.23;;;;;;;;;;5046666;28;20608;-77
2021/09/22 10:54:04;;;;;;;10.10;7.23;;;;;;;;;;5053517;28;20849;-73
2021/09/22 10:56:31;;;;;;;9.77;7.73;;;;;;;;;;5029530;28;20427;-77
2021/09/22 10:59:02;;;;;;;9.23;7.20;;;;;;;;;;5044757;28;20493;-77
2021/09/22 11:01:44;;;;;;;8.40;6.90;;;;;;;;;;5059855;28;20444;-77
2021/09/22 11:04:13;;;;;;;8.40;6.70;;;;;;;;;;5060813;28;20958;-80
2021/09/22 11:06:55;;;;;;;14.83;11.03;;;;;;;;;;5030144;28;20515;-77
2021/09/22 11:09:37;;;;;;;14.47;10.20;;;;;;;;;;5054807;28;20979;-80
2021/09/22 11:12:06;;;;;;;9.90;8.90;;;;;;;;;;5053299;28;20938;-77
2021/09/22 11:14:34;;;;;;;12.80;9.37;;;;;;;;;;5053948;28;20472;-77
2021/09/22 11:17:02;;;;;;;9.90;8.63;;;;;;;;;;5052424;28;20437;-76
2021/09/22 11:19:31;;;;;;;10.73;8.97;;;;;;;;;;5045348;28;20823;-85
2021/09/22 11:21:59;;;;;;;8.97;7.80;;;;;;;;;;5049398;28;20469;-77
2021/09/22 11:24:28;;;;;;;9.97;8.07;;;;;;;;;;5051566;28;20444;-78
2021/09/22 11:26:56;;;;;;;13.07;10.00;;;;;;;;;;5050919;28;20835;-79
2021/09/22 11:29:31;;;;;;;11.70;9.77;;;;;;;;;;5033923;28;21134;-78
2021/09/22 11:31:59;;;;;;;14.07;11.27;;;;;;;;;;5053250;28;20974;-79
2021/09/22 11:34:31;;;;;;;14.77;11.43;;;;;;;;;;5058038;28;20466;-84
2021/09/22 11:37:06;;;;;;;11.93;9.80;;;;;;;;;;5035317;28;20877;-75
2021/09/22 11:39:33;;;;;;;11.57;9.90;;;;;;;;;;5033517;28;20482;-76
2021/09/22 11:42:00;;;;;;;13.40;10.10;;;;;;;;;;5043206;28;20434;-75
2021/09/22 11:44:28;;;;;;;12.60;10.57;;;;;;;;;;5050072;28;20436;-74
2021/09/22 11:46:56;;;;;;;16.33;11.73;;;;;;;;;;5033007;28;20461;-76
2021/09/22 11:49:23;;;;;;;13.37;11.90;;;;;;;;;;5051515;28;20453;-76
2021/09/22 11:52:05;;;;;;;10.33;9.23;;;;;;;;;;5051377;28;20488;-75
2021/09/22 11:54:35;;;;;;;14.73;11.43;;;;;;;;;;5052847;28;20451;-76
2021/09/22 11:57:02;;;;;;;14.97;11.33;;;;;;;;;;5050800;28;20476;-75
2021/09/22 11:59:32;;;;;;;12.33;10.20;;;;;;;;;;5049055;28;20477;-77
2021/09/22 12:01:59;;;;;;;14.63;11.47;;;;;;;;;;5049674;28;20437;-76
2021/09/22 12:04:31;;;;;;;14.60;9.70;;;;;;;;;;5045350;28;20437;-77
2021/09/22 12:06:58;;;;;;;12.37;10.70;;;;;;;;;;5046721;28;20492;-78
2021/09/22 12:09:25;;;;;;;15.77;10.00;;;;;;;;;;5038479;28;20544;-79
2021/09/22 12:12:06;;;;;;;10.70;8.33;;;;;;;;;;5031374;28;20854;-80
2021/09/22 12:14:34;;;;;;;10.63;8.60;;;;;;;;;;5042901;28;20484;-79
2021/09/22 12:17:09;;;;;;;10.47;9.33;;;;;;;;;;5059945;28;20454;-79
2021/09/22 12:19:40;;;;;;;11.80;9.67;;;;;;;;;;5025304;28;20484;-78
2021/09/22 12:22:07;;;;;;;10.13;7.60;;;;;;;;;;5053280;28;20444;-79
2021/09/22 12:24:35;;;;;;;8.70;6.70;;;;;;;;;;5044947;28;20434;-78
2021/09/22 12:27:02;;;;;;;7.57;5.93;;;;;;;;;;5026943;28;20435;-81
2021/09/22 12:29:31;;;;;;;8.30;7.07;;;;;;;;;;5012619;28;21009;-80
2021/09/22 12:32:07;;;;;;;17.83;11.03;;;;;;;;;;5032304;28;20463;-80
2021/09/22 12:34:41;;;;;;;7.93;6.90;;;;;;;;;;5031138;28;20470;-78
2021/09/22 12:37:14;;;;;;;7.50;6.50;;;;;;;;;;5030560;28;20838;-80
2021/09/22 12:39:51;;;;;;;10.40;7.53;;;;;;;;;;5043199;28;20462;-78
2021/09/22 12:42:18;;;;;;;8.93;7.40;;;;;;;;;;5034199;28;20462;-75
2021/09/22 12:44:55;;;;;;;10.43;7.73;;;;;;;;;;5048831;28;20964;-76
2021/09/22 12:47:22;;;;;;;9.90;7.70;;;;;;;;;;5041675;28;20440;-76
2021/09/22 12:50:04;;;;;;;9.97;8.10;;;;;;;;;;5025929;28;20480;-79
2021/09/22 12:52:31;;;;;;;9.60;7.77;;;;;;;;;;5014189;28;20481;-77
2021/09/22 12:54:59;;;;;;;9.07;8.10;;;;;;;;;;5024558;28;20462;-78
2021/09/22 12:57:26;;;;;;;7.43;6.00;;;;;;;;;;5033620;28;20441;-74
2021/09/22 12:59:55;;;;;;;9.03;7.30;;;;;;;;;;5030367;28;20432;-79
2021/09/22 13:02:22;;;;;;;7.07;6.37;;;;;;;;;;5026661;28;20935;-80
2021/09/22 13:04:50;;;;;;;9.93;7.53;;;;;;;;;;5026127;28;20457;-75
2021/09/22 13:07:22;;;;;;;9.50;7.20;;;;;;;;;;5044829;28;20830;-75
2021/09/22 13:09:49;;;;;;;11.50;7.80;;;;;;;;;;5016164;28;20436;-75
2021/09/22 13:12:28;;;;;;;7.53;6.47;;;;;;;;;;5040065;28;20475;-75
2021/09/22 13:14:57;;;;;;;7.50;5.83;;;;;;;;;;5030897;28;20465;-75
2021/09/22 13:17:24;;;;;;;11.43;8.60;;;;;;;;;;5032942;28;20461;-74
2021/09/22 13:19:51;;;;;;;12.50;9.10;;;;;;;;;;5033258;28;20521;-78
2021/09/22 13:22:18;;;;;;;8.90;8.00;;;;;;;;;;5032830;28;20430;-75
2021/09/22 13:24:45;;;;;;;10.73;6.53;;;;;;;;;;5028189;28;20458;-76
2021/09/22 13:27:13;;;;;;;8.30;6.60;;;;;;;;;;5025254;28;20452;-75
2021/09/22 13:29:40;;;;;;;10.90;6.50;;;;;;;;;;5028575;28;20856;-75
2021/09/22 13:32:09;;;;;;;8.63;6.80;;;;;;;;;;5029075;28;20463;-77
2021/09/22 13:34:36;;;;;;;6.47;5.50;;;;;;;;;;5028135;28;20438;-78
2021/09/22 13:37:06;;;;;;;8.13;7.33;;;;;;;;;;5029281;28;20445;-76
2021/09/22 13:39:34;;;;;;;11.03;7.67;;;;;;;;;;5036233;28;20468;-76
2021/09/22 13:42:01;;;;;;;8.23;6.63;;;;;;;;;;5025883;28;20469;-75
2021/09/22 13:44:28;;;;;;;14.33;8.13;;;;;;;;;;5026504;28;20436;-77
2021/09/22 13:46:56;;;;;;;6.97;6.07;;;;;;;;;;5028531;28;20532;-75
2021/09/22 13:49:25;;;;;;;10.53;7.13;;;;;;;;;;5028851;28;20485;-75
2021/09/22 13:51:52;;;;;;;5.63;4.70;;;;;;;;;;5032066;28;20493;-76
2021/09/22 13:54:20;;;;;;;7.27;5.60;;;;;;;;;;5026623;28;20470;-75
2021/09/22 13:56:47;;;;;;;6.23;5.47;;;;;;;;;;5021879;28;20492;-75
2021/09/22 13:59:15;;;;;;;6.90;6.13;;;;;;;;;;5011843;28;20485;-77
2021/09/22 14:01:42;;;;;;;8.73;5.80;;;;;;;;;;5022601;28;20458;-76
2021/09/22 14:04:09;;;;;;;7.60;6.80;;;;;;;;;;5009935;28;20413;-75
2021/09/22 14:06:38;;;;;;;7.60;6.47;;;;;;;;;;5028875;28;20466;-74
2021/09/22 14:09:05;;;;;;;12.30;9.17;;;;;;;;;;5029814;28;20433;-76
2021/09/22 14:11:32;;;;;;;8.50;7.37;;;;;;;;;;5029098;28;20464;-75
2021/09/22 14:13:59;;;;;;;6.80;5.73;;;;;;;;;;5030690;28;20450;-78
2021/09/22 14:16:27;;;;;;;7.37;6.57;;;;;;;;;;5017590;28;20420;-76
2021/09/22 14:18:54;;;;;;;7.80;6.20;;;;;;;;;;5024324;28;20435;-76
2021/09/22 14:21:22;;;;;;;6.60;5.47;;;;;;;;;;5038898;28;20447;-76
2021/09/22 14:23:51;;;;;;;7.83;5.53;;;;;;;;;;5036596;28;20450;-75
2021/09/22 14:26:18;;;;;;;6.10;5.50;;;;;;;;;;5044303;28;20453;-74
2021/09/22 14:28:45;;;;;;;7.83;7.03;;;;;;;;;;5045016;28;20435;-75
2021/09/22 14:31:12;;;;;;;9.70;6.17;;;;;;;;;;5046264;28;20523;-75
2021/09/22 14:33:40;;;;;;;7.67;6.87;;;;;;;;;;5038785;28;20477;-75
2021/09/22 14:36:07;;;;;;;7.63;5.67;;;;;;;;;;5048127;28;20453;-74
2021/09/22 14:38:34;;;;;;;7.07;5.83;;;;;;;;;;5045104;28;20453;-75
2021/09/22 14:41:02;;;;;;;7.07;5.77;;;;;;;;;;5042877;28;20487;-76
2021/09/22 14:43:30;;;;;;;7.00;5.60;;;;;;;;;;5040533;28;20548;-75
2021/09/22 14:45:57;;;;;;;8.50;6.73;;;;;;;;;;5051250;28;20451;-75